Aeroporto :
LOGIN :

Iscrizione | Disclaimer

   EN    FR    IT 

 










Sommario :    VFR   VFR Marginale   IFR   IFR Intensivo   IFR Molto Intensivo
Visibilità : 
Base nubi : 
>= 8 km
>= 3000ft
5 / 8 km
1000 / 3000 ft
1500m / 5 km
500 / 1000 ft
800 / 1500m
200 / 500 ft
< 800m
< 200 ft
Simboli :   Temporali  Nebbia  Neve Forte  Precipitazioni Forti  Vento > 20 kt
SIGMETs :   Varie  Temporali  Ghiacco  Turbolenza  Onda orograficha  Ceneri Vulcaniche






- Altitudine del aeroporto : 1273 ft
- Codice IATA : LJU


LJLJ - Ljubljana

ULTIMO METAR :
  • 200900Z VRB01KT 9999 FEW033 BKN060 M01/M02 Q1042 NOSIG

METARs OBSOLETI :
  • 200830Z VRB01KT 9999 FEW013 BKN060 M02/M03 Q1042 NOSIG
  • 200800Z 30003KT 270V340 9999 FEW010 BKN060 M04/M04 Q1041 NOSIG
  • 200730Z VRB02KT 9999 FEW003 BKN060 M05/M06 Q1041 NOSIG
  • 200700Z VRB02KT 8000 FEW003 BKN060 M05/M06 Q1041 NOSIG
  • 200630Z 25002KT 8000 FEW001 SCT065 BKN170 M04/M05 Q1041 NOSIG

TAF TAF LJLJ
Valido dal 20 a 09 ore il 21 a 09 ore UTC


200800Z 2009/2109 VRB03KT 8000 FEW005 BKN060
TEMPO 2009/2013 SCT060 BKN140
BECMG 2011/2013 12004KT
BECMG 2101/2103 5000 BR BKN020
PROB30
TEMPO 2102/2108 1500 BCFG BR BKN001



MetMap, La meteo Aeronautica in un colpo d'occhio ! - Copyright ORBIFLY Dicembre 2007 - Disclaimer

ORBIFLY MET'MAP TEAM :

Programmazione e sviluppo : Alexandra Zaïnal
Concezione : Baudouin d'Aumeries
Aiuto per la programmazione : Marc-Olivier Méhu
Supporto tecnico e logistico : Manuel Goepfert
Aiuto per la traduzione : Arnaldo La Scala

Contatto : metmap@orbifly.com




FONTI E CREDITI :

   NOAA